createdAt,value
2022-07-28T00:02:58.161Z,4.38
2022-07-28T00:08:02.295Z,3.60
2022-07-28T00:13:06.806Z,4.07
2022-07-28T00:18:12.608Z,4.40
2022-07-28T00:23:16.838Z,4.72
2022-07-28T00:28:21.000Z,4.50
2022-07-28T00:33:26.861Z,6.13
2022-07-28T00:38:30.956Z,5.03
2022-07-28T00:43:35.501Z,4.20
2022-07-28T00:48:44.180Z,5.30
2022-07-28T00:53:49.114Z,4.45
2022-07-28T00:58:53.495Z,4.47
2022-07-28T01:04:03.012Z,4.10
2022-07-28T01:09:21.378Z,4.70
2022-07-28T01:14:33.974Z,4.32
2022-07-28T01:19:47.684Z,4.38
2022-07-28T01:25:03.267Z,4.03
2022-07-28T01:30:12.550Z,3.40
2022-07-28T01:35:24.650Z,3.50
2022-07-28T01:40:34.821Z,3.85
2022-07-28T01:50:48.446Z,4.47
2022-07-28T01:55:54.025Z,3.97
2022-07-28T02:01:00.439Z,4.10
2022-07-28T02:06:07.676Z,3.85
2022-07-28T02:11:29.148Z,3.85
2022-07-28T02:16:33.765Z,4.35
2022-07-28T02:21:40.496Z,3.72
2022-07-28T02:26:51.305Z,3.78
2022-07-28T02:32:03.033Z,3.75
2022-07-28T02:37:09.787Z,3.72
2022-07-28T02:42:18.797Z,3.38
2022-07-28T02:47:27.580Z,3.97
2022-07-28T02:52:34.940Z,3.55
2022-07-28T02:57:40.797Z,3.88
2022-07-28T03:02:47.057Z,4.28
2022-07-28T03:07:53.909Z,4.00
2022-07-28T03:12:58.252Z,3.83
2022-07-28T03:18:02.938Z,4.20
2022-07-28T03:23:10.125Z,3.67
2022-07-28T03:28:19.986Z,4.63
2022-07-28T03:33:24.871Z,5.10
2022-07-28T03:38:35.184Z,4.68
2022-07-28T03:43:40.690Z,6.13
2022-07-28T03:48:45.022Z,4.10
2022-07-28T03:53:51.905Z,4.85
2022-07-28T03:58:56.172Z,5.70
2022-07-28T04:04:00.832Z,5.22
2022-07-28T04:09:07.480Z,5.72
2022-07-28T04:14:16.483Z,4.82
2022-07-28T04:19:21.277Z,5.18
2022-07-28T04:24:26.762Z,5.63
2022-07-28T04:29:32.061Z,5.53
2022-07-28T04:34:38.564Z,4.90
2022-07-28T04:39:44.399Z,5.88
2022-07-28T04:44:48.820Z,5.68
2022-07-28T04:49:53.788Z,5.95
2022-07-28T04:54:59.347Z,6.03
2022-07-28T05:00:03.923Z,5.93
2022-07-28T05:05:10.492Z,6.68
2022-07-28T05:10:16.077Z,6.05
2022-07-28T05:15:20.886Z,7.63
2022-07-28T05:20:27.390Z,5.13
2022-07-28T05:25:33.017Z,5.55
2022-07-28T05:30:38.548Z,5.72
2022-07-28T05:35:42.925Z,6.03
2022-07-28T05:40:49.028Z,5.97
2022-07-28T05:45:53.592Z,6.65
2022-07-28T05:50:58.062Z,6.32
2022-07-28T05:56:03.623Z,5.75
2022-07-28T06:01:07.901Z,5.65
2022-07-28T06:06:14.702Z,6.28
2022-07-28T06:16:27.368Z,6.55
2022-07-28T06:21:33.071Z,7.22
2022-07-28T06:26:44.435Z,6.60
2022-07-28T06:31:49.108Z,7.20
2022-07-28T06:36:53.477Z,6.68
2022-07-28T06:41:58.969Z,7.20
2022-07-28T06:47:03.226Z,5.95
2022-07-28T06:52:08.009Z,6.60
2022-07-28T06:57:14.021Z,6.35
2022-07-28T07:02:26.311Z,7.18
2022-07-28T07:07:32.216Z,6.65
2022-07-28T07:12:38.647Z,6.30
2022-07-28T07:17:42.923Z,7.57
2022-07-28T07:22:48.195Z,6.00
2022-07-28T07:27:53.764Z,6.20
2022-07-28T07:32:58.346Z,6.18
2022-07-28T07:38:02.645Z,6.03
2022-07-28T07:43:08.339Z,6.88
2022-07-28T07:48:13.314Z,7.20
2022-07-28T07:53:17.751Z,6.18
2022-07-28T07:58:24.740Z,6.97
2022-07-28T08:03:28.934Z,6.25
2022-07-28T08:08:40.675Z,5.78
2022-07-28T08:13:51.237Z,5.63
2022-07-28T08:18:58.516Z,5.40
2022-07-28T08:24:04.253Z,5.60
2022-07-28T08:29:10.601Z,5.80
2022-07-28T08:34:26.371Z,5.00
2022-07-28T08:39:39.399Z,5.20
2022-07-28T08:44:52.363Z,4.97
2022-07-28T08:49:59.647Z,5.32
2022-07-28T08:55:05.343Z,5.67
2022-07-28T09:00:12.948Z,5.40
2022-07-28T09:05:19.349Z,5.47
2022-07-28T09:10:23.861Z,4.85
2022-07-28T09:15:29.670Z,5.20
2022-07-28T09:20:35.121Z,6.30
2022-07-28T09:25:39.484Z,5.05
2022-07-28T09:30:54.327Z,5.00
2022-07-28T09:36:00.621Z,4.82
2022-07-28T09:41:07.688Z,5.40
2022-07-28T09:46:14.834Z,4.05
2022-07-28T09:51:21.083Z,4.83
2022-07-28T09:56:27.639Z,5.00
2022-07-28T10:01:35.222Z,4.85
2022-07-28T10:06:43.378Z,4.53
2022-07-28T10:11:48.094Z,5.15
2022-07-28T10:16:53.875Z,4.88
2022-07-28T10:22:00.460Z,5.07
2022-07-28T10:27:06.961Z,5.07
2022-07-28T10:32:12.838Z,4.88
2022-07-28T10:37:21.869Z,6.00
2022-07-28T10:42:26.774Z,5.00
2022-07-28T10:47:36.375Z,5.22
2022-07-28T10:52:48.945Z,5.28
2022-07-28T10:58:10.850Z,6.35
2022-07-28T11:03:44.409Z,5.88
2022-07-28T11:08:49.757Z,5.47
2022-07-28T11:13:54.055Z,6.22
2022-07-28T11:19:38.012Z,5.93
2022-07-28T11:25:23.039Z,6.25
2022-07-28T11:30:55.737Z,6.38
2022-07-28T11:36:02.410Z,6.70
2022-07-28T11:41:30.181Z,6.85
2022-07-28T11:46:38.407Z,6.05
2022-07-28T11:52:14.086Z,6.60
2022-07-28T11:57:24.357Z,7.93
2022-07-28T12:07:49.603Z,7.50
2022-07-28T12:12:54.916Z,7.90
2022-07-28T12:18:00.430Z,8.57
2022-07-28T12:23:07.378Z,8.32
2022-07-28T12:28:19.126Z,7.68
2022-07-28T12:33:29.621Z,5.57
2022-07-28T12:38:36.113Z,6.25
2022-07-28T12:43:41.440Z,7.07
2022-07-28T12:48:45.565Z,6.72
2022-07-28T12:53:55.379Z,6.65
2022-07-28T12:59:07.474Z,5.85
2022-07-28T13:04:12.335Z,5.82
2022-07-28T13:09:32.666Z,6.30
2022-07-28T13:14:43.882Z,5.38
2022-07-28T13:24:54.326Z,5.15
2022-07-28T13:30:00.656Z,4.97
2022-07-28T13:35:05.839Z,5.13
2022-07-28T13:40:20.376Z,5.63
2022-07-28T13:45:24.993Z,6.18
2022-07-28T13:50:34.400Z,6.28
2022-07-28T13:55:40.724Z,5.30
2022-07-28T14:00:45.665Z,6.70
2022-07-28T14:05:50.712Z,5.20
2022-07-28T14:10:59.209Z,5.72
2022-07-28T14:16:07.814Z,5.43
2022-07-28T14:21:15.804Z,6.35
2022-07-28T14:26:35.556Z,6.90
2022-07-28T14:31:40.481Z,5.90
2022-07-28T14:36:45.239Z,5.55
2022-07-28T14:41:50.827Z,5.88
2022-07-28T14:46:55.071Z,5.45
2022-07-28T14:51:59.507Z,5.65
2022-07-28T14:57:05.286Z,5.00
2022-07-28T15:02:09.809Z,5.03
2022-07-28T15:07:14.147Z,4.28
2022-07-28T15:12:20.192Z,4.82
2022-07-28T15:17:24.460Z,5.10
2022-07-28T15:22:29.041Z,4.93
2022-07-28T15:27:42.909Z,4.78
2022-07-28T15:32:57.092Z,4.40
2022-07-28T15:38:02.117Z,6.00
2022-07-28T15:43:08.828Z,5.18
2022-07-28T15:48:13.705Z,5.38
2022-07-28T15:53:18.252Z,5.35
2022-07-28T15:58:24.078Z,5.80
2022-07-28T16:03:28.218Z,5.68
2022-07-28T16:08:32.639Z,5.95
2022-07-28T16:13:39.040Z,6.05
2022-07-28T16:18:44.154Z,6.60
2022-07-28T16:23:48.318Z,6.20
2022-07-28T16:28:53.815Z,6.85
2022-07-28T16:33:58.053Z,6.70
2022-07-28T16:39:03.791Z,6.68
2022-07-28T16:44:20.850Z,6.53
2022-07-28T16:50:00.638Z,8.48
2022-07-28T16:55:25.092Z,9.05
2022-07-28T17:00:52.746Z,6.65
2022-07-28T17:06:49.917Z,6.47
2022-07-28T17:11:58.145Z,7.43
2022-07-28T17:22:26.865Z,7.00
2022-07-28T17:27:48.085Z,8.02
2022-07-28T17:33:36.134Z,7.80
2022-07-28T17:38:56.921Z,7.10
2022-07-28T17:44:26.705Z,6.40
2022-07-28T17:50:24.448Z,7.00
2022-07-28T17:56:00.424Z,7.20
2022-07-28T18:01:52.756Z,8.23
2022-07-28T18:07:11.952Z,7.60
2022-07-28T18:12:43.186Z,7.78
2022-07-28T18:18:20.068Z,6.82
2022-07-28T18:23:39.189Z,6.97
2022-07-28T18:28:58.939Z,7.22
2022-07-28T18:39:46.864Z,7.10
2022-07-28T18:45:28.823Z,6.65
2022-07-28T18:51:06.303Z,6.97
2022-07-28T18:56:29.919Z,7.13
2022-07-28T19:07:45.354Z,6.22
2022-07-28T19:13:05.674Z,6.17
2022-07-28T19:18:47.535Z,6.18
2022-07-28T19:24:21.999Z,6.72
2022-07-28T19:29:50.502Z,7.10
2022-07-28T19:35:09.595Z,8.15
2022-07-28T19:40:23.024Z,7.75
2022-07-28T19:46:00.276Z,7.60
2022-07-28T19:51:28.372Z,7.07
2022-07-28T19:57:14.529Z,7.65
2022-07-28T20:02:31.433Z,7.47
2022-07-28T20:07:54.057Z,6.20
2022-07-28T20:13:17.762Z,7.50
2022-07-28T20:24:24.712Z,7.57
2022-07-28T20:29:39.294Z,7.40
2022-07-28T20:35:00.420Z,6.65
2022-07-28T20:40:11.103Z,8.50
2022-07-28T20:45:22.189Z,6.78
2022-07-28T20:50:39.599Z,7.05
2022-07-28T20:56:08.556Z,7.43
2022-07-28T21:01:38.723Z,7.43
2022-07-28T21:07:00.815Z,7.03
2022-07-28T21:12:21.447Z,6.68
2022-07-28T21:18:13.707Z,7.97
2022-07-28T21:23:30.697Z,7.65
2022-07-28T21:40:12.751Z,6.28
2022-07-28T21:51:18.286Z,7.35
2022-07-28T21:57:22.483Z,7.20
2022-07-28T22:02:54.723Z,6.28
2022-07-28T22:08:15.484Z,7.38
2022-07-28T22:13:39.601Z,7.32
2022-07-28T22:19:07.242Z,7.18
2022-07-28T22:24:24.221Z,7.82
2022-07-28T22:29:36.826Z,6.72
2022-07-28T22:35:11.060Z,6.47
2022-07-28T22:40:46.668Z,6.55
2022-07-28T22:51:33.663Z,5.90
2022-07-28T22:57:06.068Z,5.57
2022-07-28T23:02:59.412Z,5.30
2022-07-28T23:08:20.445Z,5.65
2022-07-28T23:44:24.202Z,5.50
2022-07-28T23:50:33.763Z,4.80
